• Join FlightAware (Why Join?)
  • Login
  • US Flag 
12:35AM EDT


 

Airport Tracker/Info


-or-


 

Live Flight TrackerFlight Track Log ✈ BJS444 ✈ 26-Apr-2013 ✈ KUGN - KDET

Flight Track Log - Related Links

Times and Time Zones

All times are in EDT time to prevent confusion due to time zone crossing. See the BJS444 flight status page for this flight to view local times or setup timezone preferences in your user account.

Time Position Orientation Groundspeed Altitude Reporting Facility
EDT Latitude Longitude Course Direction KTS MPH feet Rate Location/Type
06:45AM 42.3986 -87.9039 90° East 164 189 17,000  Level Chicago Center
06:46AM 42.3533 -87.9192 194° South 221 254 4,500 -4,800 Descending Chicago Center
06:47AM 42.3494 -87.8161 93° East 279 321 7,400 3,240 Climbing Chicago Center
06:48AM 42.4131 -87.7742 26° Northeast 274 315 11,100 4,080 Climbing Chicago Center
06:49AM 42.4931 -87.7700 North 285 328 15,700 2,940 Climbing Chicago Center
06:50AM 42.5750 -87.7619 North 295 339 17,100 600 Climbing Chicago Center
06:51AM 42.8167 -87.5739 90° East  Level FlightAware Approximate
06:51AM 42.6567 -87.7106 25° Northeast 318 366 17,000  Level Chicago Center
06:52AM 42.6889 -87.5742 72° East 335 386 17,000  Level Chicago Center
06:53AM 42.6900 -87.4450 89° East 340 391 17,000  Level Chicago Center
06:54AM 42.6925 -87.3369 88° East 342 394 17,000  Level Chicago Center
06:55AM 42.6950 -87.2067 88° East 345 397 17,000  Level Chicago Center
06:56AM 42.6975 -87.0722 89° East 355 409 17,000  Level Chicago Center
06:57AM 42.7000 -86.9375 89° East 358 412 17,000  Level Chicago Center
06:58AM 42.7039 -86.7803 88° East 350 403 17,000  Level Chicago Center
06:59AM 42.7047 -86.6503 89° East 346 398 17,100  Climbing Chicago Center
07:00AM 42.7075 -86.5225 88° East 342 394 17,100  Level Chicago Center
07:01AM 42.7083 -86.3933 89° East 342 394 17,100  Level Chicago Center
07:02AM 42.7097 -86.2469 89° East 390 449 17,100  Level Chicago Center
07:03AM 42.7114 -86.0806 89° East 442 509 17,100  Level Chicago Center
07:04AM 42.7131 -85.9181 89° East 439 505 17,100  Level Chicago Center
07:05AM 42.7142 -85.7553 89° East 437 503 17,100  Level Chicago Center
07:06AM 42.7158 -85.5919 89° East 437 503 17,100  Level Chicago Center
07:07AM 42.7172 -85.4278 89° East 437 503 17,100  Level Chicago Center
07:08AM 42.7175 -85.2644 90° East 436 502 17,100  Level Chicago Center
07:09AM 42.7178 -85.0667 90° East 437 503 17,100  Level Chicago Center
07:10AM 42.7172 -84.9028 90° East 436 502 17,100  Level Chicago Center
07:11AM 42.7181 -84.7383 90° East 436 502 17,100  Level Chicago Center
07:12AM 42.7169 -84.5742 90° East 435 501 17,100 -360 Level Chicago Center
07:13AM 42.7158 -84.5228 92° East 436 502 16,700 -2,040 Descending Cleveland Center
07:13AM 42.7133 -84.4719 94° East 440 506 15,900 -3,060 Descending Cleveland Center
07:14AM 42.7114 -84.2850 91° East 386 444 12,100 -3,000 Descending Cleveland Center
07:15AM 42.7125 -84.1806 89° East 381 438 9,900 -1,740 Descending Cleveland Center
07:16AM 42.7097 -84.0644 92° East 325 374 9,000 -960 Descending Cleveland Center
07:16AM 42.7086 -84.0361 93° East 295 339 8,700 -1,800 Descending Cleveland Center
07:17AM 42.7047 -83.9569 94° East 292 336 7,200 -1,980 Descending Cleveland Center
07:17AM 42.7036 -83.9258 93° East 293 337 6,700 -1,740 Descending Cleveland Center
07:18AM 42.7014 -83.8550 92° East 279 321 5,500 -1,500 Descending Cleveland Center
07:18AM 42.7003 -83.8181 92° East 270 311 5,200 -540 Descending Cleveland Center
07:19AM 42.6958 -83.7503 95° East 272 313 5,000 -120 Descending Cleveland Center
07:19AM 42.6883 -83.7186 108° East 260 299 5,100  Climbing Cleveland Center
07:20AM 42.6794 -83.6617 102° East 266 306 5,000  Descending Cleveland Center
07:20AM 42.6706 -83.6106 103° East 261 300 5,100 -240 Climbing Cleveland Center
07:21AM 42.6633 -83.5650 102° East 260 299 4,800 -840 Descending Cleveland Center
07:21AM 42.6564 -83.5139 100° East 263 303 4,300 -540 Descending Cleveland Center
07:23AM 42.6378 -83.4169 105° East 261 300 4,100 -420 Descending Cleveland Center
07:24AM 42.6192 -83.3314 106° East 208 239 3,500 -540 Descending Cleveland Center
07:25AM 42.5978 -83.2600 112° Southeast 208 239 3,100 -240 Descending Cleveland Center
07:26AM 42.5639 -83.1936 125° Southeast 197 227 3,100 -120 Level Cleveland Center
07:27AM 42.5297 -83.1386 130° Southeast 197 227 2,900 -300 Descending Cleveland Center
07:28AM 42.4892 -83.0919 140° Southeast 184 212 2,500 -660 Descending Cleveland Center
07:29AM 42.4464 -83.0481 143° Southeast 132 152 1,500 -840 Descending Cleveland Center
07:31AM 42.4093 -83.0102 120° Southeast  Level Estimated
07:38AM 42.4093 -83.0102 120° Southeast  Level Estimated
07:39AM 42.4093 -83.0102 120° Southeast  Level Estimated